UAL730 KSFO-NZCH
Flight info
| Callsign | UAL730 |
|---|---|
| Flight time | N/A |
| Altitude | 34000 |
| Route | GNNRR3 CINNY DCT ALANN DCT DADIE/N0488F360 DCT 25N137W 20N140W 15N145W 10N150W/N0493F380 01N160W 05S169W 10S173W/N0486F400 15S175W/N0482F390 20S176W/N0486F400 27S180E DCT TARIB G347 AA H384 NP Q137 VELGA Y894 IGEGA |
| Aircraft | B788/H-SDE1E2E3FGHIJ2J3J4J5M1RWXY/LB1D1 |
Departure
| Time | 2026-05-06 16:57 |
|---|---|
| Airport | San Francisco International Airport (KSFO) |
Arrival
| Time | N/A |
|---|---|
| Airport | Christchurch International Airport (NZCH) |
| Time | Latitude | Longitude | Altitude | Speed | Heading |
|---|---|---|---|---|---|
| 2026-05-06 16:37 | 37.61709 | -122.39098 | 28 ft | 0 kts | 44° |
| 2026-05-06 16:44 | 37.61704 | -122.39105 | 27 ft | 4 kts | 46° |
| 2026-05-06 16:44 | 37.61692 | -122.39122 | 26 ft | 4 kts | 50° |
| 2026-05-06 16:44 | 37.61675 | -122.39147 | 26 ft | 4 kts | 51° |
| 2026-05-06 16:44 | 37.61665 | -122.39167 | 26 ft | 3 kts | 63° |
| 2026-05-06 16:45 | 37.61661 | -122.39197 | 26 ft | 4 kts | 103° |
| 2026-05-06 16:45 | 37.61664 | -122.39212 | 26 ft | 2 kts | 108° |
| 2026-05-06 16:45 | 37.61675 | -122.39241 | 26 ft | 4 kts | 120° |
| 2026-05-06 16:45 | 37.61689 | -122.39270 | 26 ft | 4 kts | 120° |
| 2026-05-06 16:46 | 37.61693 | -122.39279 | 26 ft | 0 kts | 118° |
| 2026-05-06 16:47 | 37.61690 | -122.39275 | 26 ft | 1 kts | 142° |
| 2026-05-06 16:47 | 37.61686 | -122.39274 | 26 ft | 1 kts | 177° |
| 2026-05-06 16:47 | 37.61681 | -122.39276 | 25 ft | 1 kts | 215° |
| 2026-05-06 16:48 | 37.61681 | -122.39294 | 25 ft | 4 kts | 306° |
| 2026-05-06 16:48 | 37.61723 | -122.39371 | 27 ft | 11 kts | 300° |
| 2026-05-06 16:48 | 37.61768 | -122.39464 | 28 ft | 15 kts | 301° |
| 2026-05-06 16:48 | 37.61830 | -122.39518 | 28 ft | 11 kts | 344° |
| 2026-05-06 16:49 | 37.61908 | -122.39534 | 28 ft | 11 kts | 7° |
| 2026-05-06 16:49 | 37.61962 | -122.39485 | 28 ft | 10 kts | 58° |
| 2026-05-06 16:49 | 37.61992 | -122.39390 | 28 ft | 15 kts | 62° |
| 2026-05-06 16:49 | 37.62093 | -122.39300 | 28 ft | 21 kts | 25° |
| 2026-05-06 16:50 | 37.62235 | -122.39204 | 26 ft | 23 kts | 30° |
| 2026-05-06 16:50 | 37.62320 | -122.39052 | 28 ft | 21 kts | 72° |
| 2026-05-06 16:50 | 37.62326 | -122.38892 | 26 ft | 17 kts | 115° |
| 2026-05-06 16:50 | 37.62290 | -122.38805 | 28 ft | 16 kts | 117° |
| 2026-05-06 16:51 | 37.62224 | -122.38645 | 28 ft | 15 kts | 117° |
| 2026-05-06 16:51 | 37.62177 | -122.38531 | 28 ft | 15 kts | 118° |
| 2026-05-06 16:51 | 37.62129 | -122.38418 | 27 ft | 14 kts | 118° |
| 2026-05-06 16:51 | 37.62080 | -122.38300 | 28 ft | 17 kts | 117° |
| 2026-05-06 16:52 | 37.62021 | -122.38160 | 26 ft | 19 kts | 118° |
| 2026-05-06 16:52 | 37.61949 | -122.38000 | 28 ft | 22 kts | 126° |
| 2026-05-06 16:52 | 37.61834 | -122.37869 | 28 ft | 22 kts | 128° |
| 2026-05-06 16:52 | 37.61775 | -122.37694 | 28 ft | 23 kts | 111° |
| 2026-05-06 16:53 | 37.61713 | -122.37500 | 28 ft | 25 kts | 117° |
| 2026-05-06 16:53 | 37.61627 | -122.37295 | 28 ft | 27 kts | 118° |
| 2026-05-06 16:53 | 37.61541 | -122.37093 | 28 ft | 25 kts | 117° |
| 2026-05-06 16:53 | 37.61452 | -122.36906 | 28 ft | 24 kts | 131° |
| 2026-05-06 16:54 | 37.61353 | -122.36751 | 28 ft | 22 kts | 118° |
| 2026-05-06 16:54 | 37.61303 | -122.36633 | 26 ft | 21 kts | 117° |
| 2026-05-06 16:54 | 37.61237 | -122.36476 | 28 ft | 20 kts | 118° |
| 2026-05-06 16:54 | 37.61176 | -122.36326 | 28 ft | 19 kts | 117° |
| 2026-05-06 16:55 | 37.61116 | -122.36188 | 28 ft | 17 kts | 119° |
| 2026-05-06 16:55 | 37.61067 | -122.36067 | 28 ft | 14 kts | 111° |
| 2026-05-06 16:55 | 37.61052 | -122.35968 | 28 ft | 10 kts | 71° |
| 2026-05-06 16:55 | 37.61102 | -122.35899 | 28 ft | 12 kts | 27° |
| 2026-05-06 16:56 | 37.61169 | -122.35875 | 28 ft | 8 kts | 339° |
| 2026-05-06 16:56 | 37.61215 | -122.35943 | 28 ft | 17 kts | 299° |
| 2026-05-06 16:56 | 37.61346 | -122.36253 | 27 ft | 68 kts | 298° |
| 2026-05-06 16:56 | 37.61661 | -122.37004 | 27 ft | 118 kts | 299° |
| 2026-05-06 16:57 | 37.62120 | -122.38099 | 36 ft | 158 kts | 297° |
| 2026-05-06 16:57 | 37.62641 | -122.39364 | 810 ft | 152 kts | 294° |
| 2026-05-06 16:57 | 37.63163 | -122.40651 | 1351 ft | 173 kts | 299° |
| 2026-05-06 16:57 | 37.63780 | -122.41996 | 1901 ft | 185 kts | 300° |
| 2026-05-06 16:58 | 37.64458 | -122.43525 | 2156 ft | 211 kts | 300° |
| 2026-05-06 16:58 | 37.65221 | -122.45253 | 2346 ft | 240 kts | 300° |
| 2026-05-06 16:58 | 37.66057 | -122.47137 | 3044 ft | 245 kts | 300° |
| 2026-05-06 16:58 | 37.66670 | -122.49147 | 3828 ft | 251 kts | 277° |
| 2026-05-06 16:59 | 37.66509 | -122.51359 | 4593 ft | 261 kts | 251° |
| 2026-05-06 16:59 | 37.65540 | -122.53403 | 5364 ft | 270 kts | 234° |
| 2026-05-06 16:59 | 37.64471 | -122.55075 | 6034 ft | 275 kts | 232° |
| 2026-05-06 16:59 | 37.63248 | -122.56939 | 6758 ft | 281 kts | 232° |
| 2026-05-06 17:00 | 37.62000 | -122.58874 | 7438 ft | 287 kts | 233° |
| 2026-05-06 17:00 | 37.60714 | -122.60894 | 8112 ft | 294 kts | 233° |
| 2026-05-06 17:00 | 37.59424 | -122.62910 | 8791 ft | 299 kts | 233° |
| 2026-05-06 17:00 | 37.58091 | -122.64983 | 9481 ft | 306 kts | 233° |
| 2026-05-06 17:01 | 37.56733 | -122.67093 | 10171 ft | 312 kts | 234° |
| 2026-05-06 17:01 | 37.55335 | -122.69275 | 10300 ft | 339 kts | 234° |
| 2026-05-06 17:01 | 37.53766 | -122.71719 | 10441 ft | 362 kts | 233° |
| 2026-05-06 17:01 | 37.52172 | -122.74183 | 11229 ft | 363 kts | 233° |
| 2026-05-06 17:02 | 37.50567 | -122.76670 | 11904 ft | 367 kts | 234° |
| 2026-05-06 17:02 | 37.48950 | -122.79183 | 12593 ft | 371 kts | 234° |
| 2026-05-06 17:02 | 37.47889 | -122.80830 | 13059 ft | 373 kts | 234° |
| 2026-05-06 17:02 | 37.46275 | -122.83331 | 13723 ft | 377 kts | 233° |
| 2026-05-06 17:03 | 37.44616 | -122.85895 | 14372 ft | 380 kts | 234° |
| 2026-05-06 17:03 | 37.42941 | -122.88486 | 14968 ft | 384 kts | 234° |
| 2026-05-06 17:03 | 37.41244 | -122.91109 | 15592 ft | 387 kts | 234° |
| 2026-05-06 17:03 | 37.39546 | -122.93731 | 16203 ft | 390 kts | 234° |
| 2026-05-06 17:04 | 37.37829 | -122.96380 | 16810 ft | 393 kts | 234° |
| 2026-05-06 17:04 | 37.36089 | -122.99063 | 17408 ft | 396 kts | 234° |
| 2026-05-06 17:04 | 37.34352 | -123.01738 | 18015 ft | 399 kts | 234° |
| 2026-05-06 17:04 | 37.32583 | -123.04461 | 18593 ft | 402 kts | 233° |
| 2026-05-06 17:05 | 37.30807 | -123.07193 | 19074 ft | 405 kts | 233° |
| 2026-05-06 17:05 | 37.29012 | -123.09952 | 19532 ft | 409 kts | 233° |
| 2026-05-06 17:05 | 37.27189 | -123.12750 | 19998 ft | 413 kts | 233° |
| 2026-05-06 17:05 | 37.25371 | -123.15538 | 20450 ft | 417 kts | 233° |
| 2026-05-06 17:06 | 37.23511 | -123.18389 | 20903 ft | 421 kts | 233° |
| 2026-05-06 17:06 | 37.21657 | -123.21230 | 21357 ft | 424 kts | 233° |
| 2026-05-06 17:06 | 37.19787 | -123.24090 | 21791 ft | 428 kts | 233° |
| 2026-05-06 17:06 | 37.17868 | -123.27025 | 22221 ft | 432 kts | 233° |
| 2026-05-06 17:07 | 37.15980 | -123.29908 | 22650 ft | 435 kts | 233° |
| 2026-05-06 17:07 | 37.14039 | -123.32870 | 23059 ft | 439 kts | 232° |
| 2026-05-06 17:07 | 37.12096 | -123.35832 | 23475 ft | 442 kts | 232° |
| 2026-05-06 17:07 | 37.10127 | -123.38832 | 23868 ft | 445 kts | 232° |
| 2026-05-06 17:08 | 37.08170 | -123.41811 | 24216 ft | 448 kts | 232° |
| 2026-05-06 17:08 | 37.06166 | -123.44858 | 24568 ft | 451 kts | 232° |
| 2026-05-06 17:08 | 37.04168 | -123.47893 | 24909 ft | 454 kts | 232° |
| 2026-05-06 17:08 | 37.02166 | -123.50932 | 25253 ft | 456 kts | 232° |
| 2026-05-06 17:09 | 37.00145 | -123.53997 | 25588 ft | 458 kts | 232° |
| 2026-05-06 17:09 | 36.98117 | -123.57069 | 25919 ft | 461 kts | 232° |
| 2026-05-06 17:09 | 36.96056 | -123.60189 | 26253 ft | 463 kts | 232° |
| 2026-05-06 17:09 | 36.94001 | -123.63295 | 26578 ft | 465 kts | 232° |
| 2026-05-06 17:10 | 36.91919 | -123.66441 | 26907 ft | 468 kts | 232° |
| 2026-05-06 17:10 | 36.89841 | -123.69578 | 27225 ft | 470 kts | 232° |
| 2026-05-06 17:10 | 36.87751 | -123.72730 | 27542 ft | 472 kts | 231° |
| 2026-05-06 17:10 | 36.85654 | -123.75888 | 27863 ft | 474 kts | 231° |
| 2026-05-06 17:11 | 36.83563 | -123.79036 | 28182 ft | 476 kts | 231° |
| 2026-05-06 17:11 | 36.81425 | -123.82251 | 28494 ft | 478 kts | 231° |
| 2026-05-06 17:11 | 36.79300 | -123.85443 | 28798 ft | 480 kts | 231° |
| 2026-05-06 17:11 | 36.77159 | -123.88656 | 29108 ft | 482 kts | 231° |
| 2026-05-06 17:12 | 36.75025 | -123.91855 | 29414 ft | 483 kts | 231° |
| 2026-05-06 17:12 | 36.72861 | -123.95096 | 29708 ft | 485 kts | 231° |
| 2026-05-06 17:12 | 36.70709 | -123.98317 | 30003 ft | 487 kts | 231° |
| 2026-05-06 17:12 | 36.68534 | -124.01568 | 30292 ft | 489 kts | 231° |
| 2026-05-06 17:13 | 36.66333 | -124.04857 | 30532 ft | 490 kts | 231° |
| 2026-05-06 17:13 | 36.64153 | -124.08110 | 30740 ft | 493 kts | 231° |
| 2026-05-06 17:13 | 36.61938 | -124.11411 | 30966 ft | 495 kts | 231° |
| 2026-05-06 17:13 | 36.59726 | -124.14704 | 31168 ft | 497 kts | 231° |
| 2026-05-06 17:14 | 36.57518 | -124.17989 | 31380 ft | 499 kts | 231° |
| 2026-05-06 17:14 | 36.55297 | -124.21290 | 31583 ft | 501 kts | 231° |
| 2026-05-06 17:14 | 36.53036 | -124.24647 | 31780 ft | 503 kts | 231° |
| 2026-05-06 17:14 | 36.50792 | -124.27976 | 31985 ft | 505 kts | 230° |
| 2026-05-06 17:15 | 36.48538 | -124.31316 | 32174 ft | 507 kts | 230° |
| 2026-05-06 17:15 | 36.46245 | -124.34710 | 32375 ft | 509 kts | 230° |
| 2026-05-06 17:15 | 36.43972 | -124.38071 | 32565 ft | 511 kts | 230° |
| 2026-05-06 17:15 | 36.41687 | -124.41446 | 32754 ft | 513 kts | 230° |
| 2026-05-06 17:16 | 36.39394 | -124.44831 | 32938 ft | 515 kts | 230° |
| 2026-05-06 17:16 | 36.37065 | -124.48265 | 33123 ft | 517 kts | 230° |
| 2026-05-06 17:16 | 36.34766 | -124.51651 | 33297 ft | 519 kts | 230° |
| 2026-05-06 17:16 | 36.32435 | -124.55081 | 33481 ft | 520 kts | 230° |
| 2026-05-06 17:17 | 36.30072 | -124.58555 | 33645 ft | 522 kts | 230° |
| 2026-05-06 17:17 | 36.27736 | -124.61984 | 33825 ft | 524 kts | 230° |
| 2026-05-06 17:17 | 36.25370 | -124.65455 | 33982 ft | 526 kts | 230° |
| 2026-05-06 17:17 | 36.23021 | -124.68897 | 34162 ft | 527 kts | 230° |
| 2026-05-06 17:18 | 36.20627 | -124.72402 | 34315 ft | 529 kts | 229° |
| 2026-05-06 17:18 | 36.18287 | -124.75916 | 34484 ft | 529 kts | 236° |
| 2026-05-06 17:18 | 36.16319 | -124.79737 | 34618 ft | 530 kts | 239° |
| 2026-05-06 17:18 | 36.14419 | -124.83662 | 34806 ft | 530 kts | 240° |
| 2026-05-06 17:19 | 36.12537 | -124.87565 | 35030 ft | 529 kts | 239° |
| 2026-05-06 17:19 | 36.10636 | -124.91440 | 35283 ft | 527 kts | 239° |
| 2026-05-06 17:19 | 36.08702 | -124.95353 | 35520 ft | 526 kts | 239° |
| 2026-05-06 17:19 | 36.06810 | -124.99214 | 35761 ft | 525 kts | 239° |
| 2026-05-06 17:20 | 36.04928 | -125.03069 | 36000 ft | 523 kts | 239° |
| 2026-05-06 17:20 | 36.03047 | -125.06900 | 36228 ft | 522 kts | 239° |
| 2026-05-06 17:20 | 36.01165 | -125.10715 | 36251 ft | 525 kts | 239° |
| 2026-05-06 17:21 | 35.97349 | -125.18460 | 36251 ft | 521 kts | 239° |
| 2026-05-06 17:21 | 35.93595 | -125.26060 | 36253 ft | 517 kts | 239° |
| 2026-05-06 17:22 | 35.89852 | -125.33621 | 36254 ft | 516 kts | 239° |
| 2026-05-06 17:22 | 35.86086 | -125.41213 | 36252 ft | 516 kts | 239° |
| 2026-05-06 17:23 | 35.82330 | -125.48767 | 36266 ft | 516 kts | 239° |
| 2026-05-06 17:23 | 35.78573 | -125.56308 | 36263 ft | 516 kts | 239° |
| 2026-05-06 17:24 | 35.74825 | -125.63812 | 36261 ft | 516 kts | 239° |
| 2026-05-06 17:24 | 35.71046 | -125.71362 | 36264 ft | 515 kts | 239° |
| 2026-05-06 17:25 | 35.67298 | -125.78835 | 36259 ft | 513 kts | 239° |
| 2026-05-06 17:25 | 35.63576 | -125.86240 | 36262 ft | 511 kts | 239° |
| 2026-05-06 17:26 | 35.59814 | -125.93661 | 36270 ft | 510 kts | 234° |
| 2026-05-06 17:26 | 35.55359 | -126.00501 | 36281 ft | 510 kts | 230° |
| 2026-05-06 17:27 | 35.50874 | -126.07208 | 36274 ft | 510 kts | 231° |
| 2026-05-06 17:27 | 35.46384 | -126.13967 | 36271 ft | 510 kts | 231° |
| 2026-05-06 17:28 | 35.41875 | -126.20696 | 36272 ft | 509 kts | 231° |
| 2026-05-06 17:28 | 35.37372 | -126.27434 | 36028 ft | 505 kts | 231° |
| 2026-05-06 17:28 | 35.35191 | -126.30681 | 36131 ft | 496 kts | 231° |
| 2026-05-06 17:29 | 35.32997 | -126.33949 | 36244 ft | 493 kts | 231° |
| 2026-05-06 17:29 | 35.28602 | -126.40494 | 36278 ft | 500 kts | 231° |
| 2026-05-06 17:30 | 35.24170 | -126.47073 | 36280 ft | 499 kts | 231° |
| 2026-05-06 17:30 | 35.19773 | -126.53593 | 36279 ft | 498 kts | 231° |
| 2026-05-06 17:31 | 35.16098 | -126.59030 | 36279 ft | 497 kts | 231° |
| 2026-05-06 17:31 | 35.11671 | -126.65571 | 36277 ft | 496 kts | 231° |
| 2026-05-06 17:32 | 35.07262 | -126.72072 | 36277 ft | 497 kts | 231° |
| 2026-05-06 17:32 | 35.02817 | -126.78614 | 36279 ft | 497 kts | 231° |
| 2026-05-06 17:33 | 34.98399 | -126.85105 | 36281 ft | 498 kts | 231° |
| 2026-05-06 17:33 | 34.93963 | -126.91608 | 36282 ft | 498 kts | 231° |
| 2026-05-06 17:34 | 34.89515 | -126.98118 | 36283 ft | 499 kts | 231° |
| 2026-05-06 17:34 | 34.85083 | -127.04593 | 36288 ft | 498 kts | 231° |
| 2026-05-06 17:35 | 34.80649 | -127.11059 | 36284 ft | 497 kts | 231° |
| 2026-05-06 17:35 | 34.76211 | -127.17519 | 36282 ft | 496 kts | 231° |
| 2026-05-06 17:36 | 34.69573 | -127.27157 | 36288 ft | 495 kts | 231° |
| 2026-05-06 17:36 | 34.65122 | -127.33606 | 36286 ft | 494 kts | 231° |
| 2026-05-06 17:37 | 34.60708 | -127.39989 | 36285 ft | 495 kts | 231° |
| 2026-05-06 17:37 | 34.56265 | -127.46402 | 36285 ft | 495 kts | 230° |
| 2026-05-06 17:38 | 34.51834 | -127.52787 | 36290 ft | 496 kts | 230° |
| 2026-05-06 17:38 | 34.47382 | -127.59190 | 36289 ft | 496 kts | 230° |
| 2026-05-06 17:39 | 34.42903 | -127.65620 | 36295 ft | 497 kts | 230° |
| 2026-05-06 17:39 | 34.38460 | -127.71987 | 36291 ft | 496 kts | 230° |
| 2026-05-06 17:40 | 34.33975 | -127.78403 | 36295 ft | 495 kts | 230° |
| 2026-05-06 17:40 | 34.29527 | -127.84754 | 36293 ft | 494 kts | 230° |
| 2026-05-06 17:41 | 34.25104 | -127.91058 | 36294 ft | 493 kts | 230° |
| 2026-05-06 17:41 | 34.20654 | -127.97391 | 36296 ft | 494 kts | 230° |
| 2026-05-06 17:42 | 34.16210 | -128.03701 | 36297 ft | 494 kts | 230° |
| 2026-05-06 17:42 | 34.11734 | -128.10047 | 36295 ft | 495 kts | 230° |
| 2026-05-06 17:43 | 34.07272 | -128.16362 | 36294 ft | 495 kts | 230° |
| 2026-05-06 17:43 | 34.02789 | -128.22695 | 36299 ft | 495 kts | 230° |
| 2026-05-06 17:44 | 33.98311 | -128.29010 | 36298 ft | 494 kts | 230° |
| 2026-05-06 17:44 | 33.93822 | -128.35328 | 36293 ft | 493 kts | 230° |
| 2026-05-06 17:45 | 33.89370 | -128.41585 | 36299 ft | 491 kts | 230° |
| 2026-05-06 17:45 | 33.84927 | -128.47817 | 36295 ft | 491 kts | 230° |
| 2026-05-06 17:46 | 33.80456 | -128.54078 | 36295 ft | 492 kts | 230° |
| 2026-05-06 17:46 | 33.75980 | -128.60333 | 36301 ft | 492 kts | 230° |
| 2026-05-06 17:47 | 33.71507 | -128.66575 | 36301 ft | 492 kts | 230° |
| 2026-05-06 17:47 | 33.67031 | -128.72811 | 36299 ft | 491 kts | 230° |
| 2026-05-06 17:48 | 33.62569 | -128.79015 | 36299 ft | 491 kts | 230° |
| 2026-05-06 17:48 | 33.58076 | -128.85252 | 36296 ft | 490 kts | 230° |
| 2026-05-06 17:49 | 33.53621 | -128.91424 | 36299 ft | 490 kts | 230° |
| 2026-05-06 17:49 | 33.49154 | -128.97605 | 36297 ft | 490 kts | 230° |
| 2026-05-06 17:50 | 33.44682 | -129.03780 | 36300 ft | 489 kts | 230° |
| 2026-05-06 17:50 | 33.40232 | -129.09916 | 36303 ft | 489 kts | 230° |
| 2026-05-06 17:51 | 33.35767 | -129.16061 | 36301 ft | 489 kts | 230° |
| 2026-05-06 17:51 | 33.31291 | -129.22210 | 36304 ft | 489 kts | 230° |
| 2026-05-06 17:52 | 33.26824 | -129.28336 | 36304 ft | 488 kts | 230° |
| 2026-05-06 17:52 | 33.22373 | -129.34431 | 36305 ft | 489 kts | 229° |
| 2026-05-06 17:53 | 33.17875 | -129.40581 | 36306 ft | 490 kts | 229° |
| 2026-05-06 17:53 | 33.13388 | -129.46702 | 36308 ft | 491 kts | 229° |
| 2026-05-06 17:54 | 33.09639 | -129.51811 | 36312 ft | 492 kts | 229° |
| 2026-05-06 17:54 | 33.05103 | -129.57981 | 36317 ft | 492 kts | 229° |
| 2026-05-06 17:55 | 33.00597 | -129.64101 | 36318 ft | 491 kts | 229° |
| 2026-05-06 17:55 | 32.96088 | -129.70215 | 36314 ft | 490 kts | 229° |
| 2026-05-06 17:56 | 32.91599 | -129.76290 | 36310 ft | 488 kts | 229° |
| 2026-05-06 17:56 | 32.87111 | -129.82355 | 36307 ft | 488 kts | 229° |
| 2026-05-06 17:57 | 32.82628 | -129.88403 | 36305 ft | 488 kts | 229° |
| 2026-05-06 17:57 | 32.78134 | -129.94455 | 36303 ft | 488 kts | 229° |
| 2026-05-06 17:58 | 32.73632 | -130.00509 | 36305 ft | 489 kts | 229° |
| 2026-05-06 17:58 | 32.69109 | -130.06580 | 36311 ft | 489 kts | 229° |
| 2026-05-06 17:59 | 32.64602 | -130.12620 | 36312 ft | 490 kts | 229° |
| 2026-05-06 17:59 | 32.60064 | -130.18692 | 36309 ft | 490 kts | 229° |
| 2026-05-06 18:00 | 32.55553 | -130.24717 | 36314 ft | 490 kts | 229° |
| 2026-05-06 18:00 | 32.51016 | -130.30767 | 36311 ft | 490 kts | 229° |
| 2026-05-06 18:01 | 32.46476 | -130.36811 | 36309 ft | 490 kts | 229° |
| 2026-05-06 18:01 | 32.41951 | -130.42825 | 36310 ft | 490 kts | 229° |
| 2026-05-06 18:02 | 32.37423 | -130.48833 | 36309 ft | 489 kts | 229° |
| 2026-05-06 18:02 | 32.32865 | -130.54872 | 36318 ft | 489 kts | 229° |
| 2026-05-06 18:03 | 32.28351 | -130.60843 | 36317 ft | 489 kts | 229° |
| 2026-05-06 18:03 | 32.23784 | -130.66874 | 36314 ft | 489 kts | 229° |
| 2026-05-06 18:04 | 32.19244 | -130.72858 | 36320 ft | 489 kts | 229° |
| 2026-05-06 18:04 | 32.14721 | -130.78811 | 36324 ft | 489 kts | 229° |
| 2026-05-06 18:05 | 32.10176 | -130.84785 | 36318 ft | 489 kts | 229° |
| 2026-05-06 18:05 | 32.05609 | -130.90776 | 36322 ft | 489 kts | 229° |
| 2026-05-06 18:06 | 32.01064 | -130.96729 | 36310 ft | 489 kts | 229° |
| 2026-05-06 18:06 | 31.96492 | -131.02708 | 36321 ft | 489 kts | 229° |
| 2026-05-06 18:07 | 31.91949 | -131.08639 | 36316 ft | 489 kts | 230° |
| 2026-05-06 18:07 | 31.87396 | -131.14576 | 36307 ft | 488 kts | 230° |
| 2026-05-06 18:08 | 31.82824 | -131.20526 | 36312 ft | 488 kts | 230° |
| 2026-05-06 18:08 | 31.78278 | -131.26433 | 36310 ft | 489 kts | 230° |
| 2026-05-06 18:09 | 31.73694 | -131.32380 | 36306 ft | 490 kts | 230° |
| 2026-05-06 18:09 | 31.69122 | -131.38302 | 36305 ft | 491 kts | 230° |
| 2026-05-06 18:10 | 31.64501 | -131.44279 | 36307 ft | 492 kts | 230° |
| 2026-05-06 18:10 | 31.59899 | -131.50221 | 36306 ft | 492 kts | 230° |
| 2026-05-06 18:11 | 31.55279 | -131.56176 | 36307 ft | 492 kts | 230° |
| 2026-05-06 18:11 | 31.50662 | -131.62119 | 36306 ft | 492 kts | 231° |
| 2026-05-06 18:12 | 31.46015 | -131.68091 | 36302 ft | 492 kts | 231° |
| 2026-05-06 18:12 | 31.41391 | -131.74023 | 36307 ft | 492 kts | 231° |
| 2026-05-06 18:13 | 31.36785 | -131.79924 | 36304 ft | 492 kts | 231° |
| 2026-05-06 18:13 | 31.32149 | -131.85853 | 36309 ft | 491 kts | 231° |
| 2026-05-06 18:14 | 31.27503 | -131.91785 | 36305 ft | 491 kts | 231° |
| 2026-05-06 18:14 | 31.22916 | -131.97634 | 36307 ft | 491 kts | 231° |
| 2026-05-06 18:15 | 31.18273 | -132.03545 | 36306 ft | 490 kts | 231° |
| 2026-05-06 18:15 | 31.13647 | -132.09425 | 36306 ft | 490 kts | 231° |
| 2026-05-06 18:16 | 31.08750 | -132.15008 | 36341 ft | 493 kts | 219° |
| 2026-05-06 18:16 | 31.03212 | -132.19744 | 36317 ft | 495 kts | 219° |
| 2026-05-06 18:17 | 30.97637 | -132.24511 | 36317 ft | 495 kts | 219° |
| 2026-05-06 18:17 | 30.92078 | -132.29263 | 36321 ft | 495 kts | 219° |
| 2026-05-06 18:18 | 30.86521 | -132.33998 | 36318 ft | 495 kts | 219° |
| 2026-05-06 18:18 | 30.80963 | -132.38735 | 36315 ft | 495 kts | 219° |
| 2026-05-06 18:19 | 30.75417 | -132.43449 | 36312 ft | 494 kts | 219° |
| 2026-05-06 18:19 | 30.70762 | -132.47404 | 36307 ft | 494 kts | 219° |
| 2026-05-06 18:20 | 30.65204 | -132.52117 | 36302 ft | 494 kts | 219° |
| 2026-05-06 18:20 | 30.59615 | -132.56850 | 36302 ft | 494 kts | 219° |
| 2026-05-06 18:21 | 30.54051 | -132.61555 | 36302 ft | 493 kts | 219° |
| 2026-05-06 18:21 | 30.48521 | -132.66225 | 36303 ft | 493 kts | 219° |
| 2026-05-06 18:22 | 30.42958 | -132.70915 | 36301 ft | 492 kts | 219° |
| 2026-05-06 18:22 | 30.37424 | -132.75574 | 36299 ft | 492 kts | 219° |
| 2026-05-06 18:23 | 30.31890 | -132.80227 | 36296 ft | 492 kts | 219° |
| 2026-05-06 18:23 | 30.26349 | -132.84879 | 36299 ft | 491 kts | 219° |
| 2026-05-06 18:24 | 30.20819 | -132.89516 | 36297 ft | 492 kts | 219° |
| 2026-05-06 18:24 | 30.15270 | -132.94161 | 36298 ft | 493 kts | 219° |
| 2026-05-06 18:25 | 30.09700 | -132.98818 | 36299 ft | 494 kts | 219° |
| 2026-05-06 18:25 | 30.04095 | -133.03496 | 36295 ft | 494 kts | 219° |
| 2026-05-06 18:26 | 29.98525 | -133.08140 | 36296 ft | 493 kts | 219° |
| 2026-05-06 18:26 | 29.92994 | -133.12744 | 36296 ft | 492 kts | 219° |
| 2026-05-06 18:27 | 29.87428 | -133.17370 | 36296 ft | 491 kts | 219° |
| 2026-05-06 18:27 | 29.81873 | -133.21982 | 36296 ft | 490 kts | 219° |
| 2026-05-06 18:28 | 29.76332 | -133.26576 | 36296 ft | 491 kts | 219° |
| 2026-05-06 18:28 | 29.70772 | -133.31177 | 36289 ft | 492 kts | 218° |
| 2026-05-06 18:29 | 29.65223 | -133.35765 | 36292 ft | 493 kts | 218° |
| 2026-05-06 18:29 | 29.59653 | -133.40363 | 36294 ft | 493 kts | 218° |
| 2026-05-06 18:30 | 29.54070 | -133.44965 | 36292 ft | 492 kts | 218° |
| 2026-05-06 18:30 | 29.48512 | -133.49541 | 36286 ft | 491 kts | 218° |
| 2026-05-06 18:31 | 29.42977 | -133.54091 | 36290 ft | 490 kts | 218° |
| 2026-05-06 18:31 | 29.37400 | -133.58669 | 36293 ft | 490 kts | 218° |
| 2026-05-06 18:32 | 29.31852 | -133.63218 | 36287 ft | 489 kts | 218° |
| 2026-05-06 18:32 | 29.26302 | -133.67761 | 36283 ft | 488 kts | 218° |
| 2026-05-06 18:33 | 29.20723 | -133.72322 | 36284 ft | 489 kts | 218° |
| 2026-05-06 18:33 | 29.15161 | -133.76864 | 36297 ft | 489 kts | 218° |
| 2026-05-06 18:34 | 29.09577 | -133.81416 | 36291 ft | 489 kts | 218° |
| 2026-05-06 18:34 | 29.04014 | -133.85946 | 36284 ft | 489 kts | 218° |
| 2026-05-06 18:35 | 28.98462 | -133.90461 | 36287 ft | 489 kts | 218° |
| 2026-05-06 18:35 | 28.92903 | -133.94975 | 36288 ft | 489 kts | 218° |
| 2026-05-06 18:36 | 28.87320 | -133.99503 | 36285 ft | 489 kts | 218° |
| 2026-05-06 18:36 | 28.81778 | -134.03991 | 36284 ft | 489 kts | 217° |
| 2026-05-06 18:37 | 28.77139 | -134.07744 | 36285 ft | 488 kts | 217° |
| 2026-05-06 18:37 | 28.70631 | -134.13001 | 36281 ft | 488 kts | 217° |
| 2026-05-06 18:38 | 28.65075 | -134.17483 | 36281 ft | 488 kts | 217° |
| 2026-05-06 18:38 | 28.59554 | -134.21930 | 36283 ft | 487 kts | 217° |
| 2026-05-06 18:39 | 28.54006 | -134.26394 | 36282 ft | 487 kts | 217° |
| 2026-05-06 18:40 | 28.45738 | -134.33035 | 36278 ft | 486 kts | 217° |
| 2026-05-06 18:40 | 28.41099 | -134.36755 | 36283 ft | 486 kts | 217° |
| 2026-05-06 18:41 | 28.35586 | -134.41171 | 36276 ft | 486 kts | 217° |
| 2026-05-06 18:41 | 28.30039 | -134.45609 | 36275 ft | 485 kts | 217° |
| 2026-05-06 18:42 | 28.24536 | -134.50005 | 36278 ft | 485 kts | 217° |
| 2026-05-06 18:42 | 28.19004 | -134.54419 | 36273 ft | 484 kts | 217° |
| 2026-05-06 18:43 | 28.13484 | -134.58818 | 36274 ft | 484 kts | 217° |
| 2026-05-06 18:43 | 28.07988 | -134.63192 | 36277 ft | 484 kts | 217° |
| 2026-05-06 18:44 | 28.02470 | -134.67578 | 36273 ft | 483 kts | 217° |
| 2026-05-06 18:44 | 27.96986 | -134.71931 | 36273 ft | 482 kts | 218° |
| 2026-05-06 18:45 | 27.93699 | -134.74538 | 36271 ft | 482 kts | 218° |
| 2026-05-06 18:46 | 27.92321 | -134.75630 | 36271 ft | 482 kts | 218° |
| 2026-05-06 18:46 | 27.86831 | -134.79979 | 36271 ft | 481 kts | 218° |
| 2026-05-06 18:47 | 27.81350 | -134.84314 | 36274 ft | 481 kts | 218° |
| 2026-05-06 18:47 | 27.75859 | -134.88652 | 36270 ft | 482 kts | 218° |
| 2026-05-06 18:48 | 27.70377 | -134.92977 | 36268 ft | 480 kts | 218° |
| 2026-05-06 18:48 | 27.64891 | -134.97301 | 36268 ft | 481 kts | 218° |
| 2026-05-06 18:49 | 27.59394 | -135.01627 | 36270 ft | 482 kts | 218° |
| 2026-05-06 18:49 | 27.53906 | -135.05941 | 36265 ft | 482 kts | 218° |
| 2026-05-06 18:50 | 27.48410 | -135.10255 | 36271 ft | 482 kts | 218° |
| 2026-05-06 18:50 | 27.42888 | -135.14585 | 36271 ft | 482 kts | 218° |
| 2026-05-06 18:51 | 27.37399 | -135.18883 | 36266 ft | 482 kts | 218° |
| 2026-05-06 18:51 | 27.31878 | -135.23202 | 36260 ft | 481 kts | 218° |
| 2026-05-06 18:52 | 27.26367 | -135.27507 | 36269 ft | 481 kts | 218° |
| 2026-05-06 18:52 | 27.20901 | -135.31772 | 36278 ft | 481 kts | 218° |
| 2026-05-06 18:53 | 27.15373 | -135.36080 | 36259 ft | 480 kts | 218° |
| 2026-05-06 18:53 | 27.09900 | -135.40340 | 36257 ft | 480 kts | 218° |
| 2026-05-06 18:54 | 27.04387 | -135.44625 | 36257 ft | 480 kts | 218° |
| 2026-05-06 18:54 | 26.98904 | -135.48883 | 36264 ft | 479 kts | 218° |
| 2026-05-06 18:55 | 26.93425 | -135.53132 | 36271 ft | 479 kts | 218° |
| 2026-05-06 18:55 | 26.87949 | -135.57373 | 36267 ft | 479 kts | 218° |
| 2026-05-06 18:56 | 26.82469 | -135.61613 | 36267 ft | 478 kts | 218° |
| 2026-05-06 18:56 | 26.76983 | -135.65852 | 36265 ft | 478 kts | 218° |
| 2026-05-06 18:57 | 26.71482 | -135.70098 | 36263 ft | 478 kts | 218° |
| 2026-05-06 18:57 | 26.66009 | -135.74317 | 36263 ft | 479 kts | 218° |
| 2026-05-06 18:58 | 26.60528 | -135.78537 | 36261 ft | 479 kts | 218° |
| 2026-05-06 18:58 | 26.54993 | -135.82794 | 36260 ft | 479 kts | 218° |
| 2026-05-06 18:59 | 26.49510 | -135.87005 | 36262 ft | 479 kts | 218° |
| 2026-05-06 18:59 | 26.44011 | -135.91224 | 36260 ft | 479 kts | 218° |
| 2026-05-06 19:00 | 26.38516 | -135.95435 | 36257 ft | 479 kts | 218° |
| 2026-05-06 19:00 | 26.32998 | -135.99659 | 36252 ft | 479 kts | 218° |
| 2026-05-06 19:01 | 26.27497 | -136.03864 | 36250 ft | 479 kts | 218° |
| 2026-05-06 19:01 | 26.22012 | -136.08053 | 36250 ft | 478 kts | 218° |
| 2026-05-06 19:02 | 26.16528 | -136.12236 | 36252 ft | 476 kts | 218° |
| 2026-05-06 19:02 | 26.11045 | -136.16413 | 36246 ft | 475 kts | 218° |
| 2026-05-06 19:03 | 26.05595 | -136.20561 | 36251 ft | 476 kts | 218° |
| 2026-05-06 19:03 | 26.00109 | -136.24731 | 36251 ft | 478 kts | 218° |
| 2026-05-06 19:04 | 25.94633 | -136.28888 | 36254 ft | 478 kts | 218° |
| 2026-05-06 19:04 | 25.89142 | -136.33052 | 36251 ft | 477 kts | 218° |
| 2026-05-06 19:05 | 25.83649 | -136.37213 | 36249 ft | 476 kts | 218° |
| 2026-05-06 19:05 | 25.78184 | -136.41348 | 36248 ft | 475 kts | 218° |
| 2026-05-06 19:06 | 25.72726 | -136.45473 | 36244 ft | 474 kts | 218° |
| 2026-05-06 19:06 | 25.67275 | -136.49588 | 36245 ft | 474 kts | 218° |
| 2026-05-06 19:07 | 25.62757 | -136.52995 | 36241 ft | 474 kts | 218° |
| 2026-05-06 19:07 | 25.57289 | -136.57114 | 36242 ft | 475 kts | 218° |
| 2026-05-06 19:08 | 25.51791 | -136.61252 | 36244 ft | 475 kts | 218° |
| 2026-05-06 19:08 | 25.46342 | -136.65347 | 36240 ft | 475 kts | 218° |
| 2026-05-06 19:09 | 25.40884 | -136.69446 | 36244 ft | 474 kts | 218° |
| 2026-05-06 19:09 | 25.35408 | -136.73553 | 36237 ft | 474 kts | 218° |
| 2026-05-06 19:10 | 25.29951 | -136.77641 | 36237 ft | 474 kts | 218° |
| 2026-05-06 19:10 | 25.24506 | -136.81715 | 36233 ft | 473 kts | 218° |
| 2026-05-06 19:11 | 25.19050 | -136.85794 | 36230 ft | 473 kts | 218° |
| 2026-05-06 19:11 | 25.13620 | -136.89849 | 36233 ft | 472 kts | 218° |
| 2026-05-06 19:12 | 25.08164 | -136.93918 | 36233 ft | 472 kts | 218° |
| 2026-05-06 19:12 | 25.02741 | -136.97958 | 36228 ft | 471 kts | 218° |
| 2026-05-06 19:13 | 24.97142 | -137.01792 | 36239 ft | 473 kts | 214° |
| 2026-05-06 19:13 | 24.91433 | -137.05360 | 36238 ft | 472 kts | 214° |
| 2026-05-06 19:14 | 24.85716 | -137.08938 | 36236 ft | 472 kts | 214° |
| 2026-05-06 19:14 | 24.79999 | -137.12506 | 36233 ft | 471 kts | 214° |
| 2026-05-06 19:15 | 24.74298 | -137.16064 | 36228 ft | 471 kts | 214° |
| 2026-05-06 19:15 | 24.68617 | -137.19603 | 36227 ft | 471 kts | 214° |
| 2026-05-06 19:16 | 24.62895 | -137.23166 | 36221 ft | 470 kts | 214° |
| 2026-05-06 19:16 | 24.57187 | -137.26715 | 36222 ft | 470 kts | 214° |
| 2026-05-06 19:17 | 24.51512 | -137.30240 | 36222 ft | 470 kts | 214° |
| 2026-05-06 19:17 | 24.45775 | -137.33800 | 36218 ft | 470 kts | 214° |
| 2026-05-06 19:18 | 24.40082 | -137.37329 | 36224 ft | 471 kts | 214° |
| 2026-05-06 19:18 | 24.34380 | -137.40860 | 36221 ft | 472 kts | 214° |
| 2026-05-06 19:19 | 24.28658 | -137.44400 | 36219 ft | 473 kts | 214° |
| 2026-05-06 19:19 | 24.22934 | -137.47936 | 36217 ft | 472 kts | 214° |
| 2026-05-06 19:20 | 24.17211 | -137.51470 | 36210 ft | 471 kts | 214° |
| 2026-05-06 19:20 | 24.11486 | -137.55000 | 36214 ft | 470 kts | 214° |
| 2026-05-06 19:21 | 24.05789 | -137.58509 | 36210 ft | 469 kts | 214° |
| 2026-05-06 19:21 | 24.00083 | -137.62021 | 36210 ft | 468 kts | 214° |
| 2026-05-06 19:22 | 23.94413 | -137.65507 | 36209 ft | 469 kts | 214° |
| 2026-05-06 19:22 | 23.88671 | -137.69034 | 36208 ft | 470 kts | 214° |
| 2026-05-06 19:23 | 23.82975 | -137.72528 | 36207 ft | 470 kts | 214° |
| 2026-05-06 19:23 | 23.77256 | -137.76033 | 36208 ft | 470 kts | 214° |
| 2026-05-06 19:24 | 23.71548 | -137.79527 | 36201 ft | 471 kts | 214° |
| 2026-05-06 19:24 | 23.65820 | -137.83031 | 36206 ft | 470 kts | 214° |
| 2026-05-06 19:25 | 23.60080 | -137.86538 | 36202 ft | 470 kts | 214° |
| 2026-05-06 19:25 | 23.54355 | -137.90033 | 36213 ft | 470 kts | 214° |
| 2026-05-06 19:26 | 23.48602 | -137.93541 | 36209 ft | 470 kts | 214° |
| 2026-05-06 19:26 | 23.42918 | -137.97003 | 36204 ft | 470 kts | 214° |
| 2026-05-06 19:27 | 23.37192 | -138.00488 | 36196 ft | 469 kts | 214° |
| 2026-05-06 19:27 | 23.31480 | -138.03961 | 36206 ft | 469 kts | 214° |
| 2026-05-06 19:28 | 23.25787 | -138.07419 | 36199 ft | 468 kts | 214° |
| 2026-05-06 19:28 | 23.20079 | -138.10882 | 36196 ft | 468 kts | 213° |
| 2026-05-06 19:29 | 23.14386 | -138.14333 | 36197 ft | 469 kts | 213° |
| 2026-05-06 19:29 | 23.08690 | -138.17782 | 36194 ft | 470 kts | 213° |
| 2026-05-06 19:30 | 23.02968 | -138.21244 | 36192 ft | 471 kts | 213° |
| 2026-05-06 19:30 | 22.97224 | -138.24715 | 36192 ft | 471 kts | 213° |
| 2026-05-06 19:31 | 22.91505 | -138.28168 | 36191 ft | 470 kts | 213° |
| 2026-05-06 19:31 | 22.82925 | -138.33342 | 36184 ft | 470 kts | 213° |
| 2026-05-06 19:32 | 22.78152 | -138.36218 | 36186 ft | 469 kts | 213° |
| 2026-05-06 19:32 | 22.71514 | -138.40212 | 36184 ft | 469 kts | 213° |
| 2026-05-06 19:33 | 22.65795 | -138.43650 | 36180 ft | 469 kts | 213° |
| 2026-05-06 19:33 | 22.61051 | -138.46500 | 36180 ft | 468 kts | 213° |
| 2026-05-06 19:34 | 22.55349 | -138.49921 | 36179 ft | 468 kts | 213° |
| 2026-05-06 19:34 | 22.49647 | -138.53340 | 36176 ft | 468 kts | 214° |
| 2026-05-06 19:35 | 22.43944 | -138.56756 | 36178 ft | 467 kts | 214° |
| 2026-05-06 19:35 | 22.38220 | -138.60181 | 36174 ft | 467 kts | 214° |
| 2026-05-06 19:36 | 22.32539 | -138.63578 | 36172 ft | 468 kts | 214° |
| 2026-05-06 19:36 | 22.26833 | -138.66986 | 36173 ft | 469 kts | 214° |
| 2026-05-06 19:37 | 22.21107 | -138.70402 | 36172 ft | 470 kts | 214° |
| 2026-05-06 19:37 | 22.15383 | -138.73814 | 36171 ft | 470 kts | 214° |
| 2026-05-06 19:38 | 22.09658 | -138.77224 | 36167 ft | 469 kts | 214° |
| 2026-05-06 19:38 | 22.03944 | -138.80624 | 36169 ft | 467 kts | 214° |
| 2026-05-06 19:39 | 21.98246 | -138.84012 | 36172 ft | 466 kts | 214° |
| 2026-05-06 19:39 | 21.92552 | -138.87394 | 36162 ft | 467 kts | 214° |
| 2026-05-06 19:40 | 21.86873 | -138.90764 | 36169 ft | 468 kts | 214° |
| 2026-05-06 19:40 | 21.81116 | -138.94177 | 36155 ft | 468 kts | 214° |
| 2026-05-06 19:41 | 21.75416 | -138.97552 | 36161 ft | 468 kts | 214° |
| 2026-05-06 19:41 | 21.69690 | -139.00940 | 36167 ft | 467 kts | 214° |
| 2026-05-06 19:42 | 21.63981 | -139.04316 | 36163 ft | 467 kts | 214° |